Weather History for Buffalo, WY

Change the Weather History Date:

Monday, April 8, 2013

  Actual Average Record
Temperature  
Mean Temperature 28 °F 41 °F  
Max Temperature 40 °F 52 °F 69 °F (2005)
Min Temperature 15 °F 30 °F 15 °F (2013)
Degree Days  
Heating Degree Days 37 24  
Month to date heating degree days 159 202  
Since 1 July heating degree days 6043 6392  
Cooling Degree Days 0 0  
Month to date cooling degree days 0 0  
Year to date cooling degree days 0 0  
Moisture  
Dew Point 18 °F    
Average Humidity 87    
Maximum Humidity 96    
Minimum Humidity 77    
Precipitation  
Precipitation T in 0.03 in 0.44 in (2005)
Month to date precipitation 0.16 0.22  
Year to date precipitation 0.85 1.91  
Sea Level Pressure  
Sea Level Pressure 29.91 in    
Wind  
Wind Speed 29 mph (NNW)    
Max Wind Speed 39 mph    
Max Gust Speed 49 mph    
Visibility 4 miles    
Events Fog , Snow    
T = Trace of Precipitation, MM = Missing Value Source: NWS Daily Summary

Daily Weather History Graph

Daily Weather History Graph

Search for Another Location

Airport:

Trip Planner

Search our weather history database for the weather conditions in past years. The results will help you decide how hot, cold, wet, or windy it might be!

Date:

Astronomy

Apr. 08, 2013 Rise Set
Actual Time 6:34 AM MDT 7:43 PM MDT
Civil Twilight 6:05 AM MDT 8:13 PM MDT
Nautical Twilight 5:29 AM MDT 8:48 PM MDT
Astronomical Twilight 4:51 AM MDT 9:26 PM MDT
Moon 5:29 AM MDT (4/8) 6:18 PM MDT (4/8)
Length of Visible Light 14h 08m
Length of Day
13h 08m
Waning Crescent, 3% of the Moon is Illuminated
Apr 8
Waning Crescent
Apr 10
New
Apr 18
First Quarter
Apr 25
Full
May 2
Last Quarter

Hourly Weather History & Observations

Time (MDT) Temp. Windchill Dew Point Humidity Pressure Visibility Wind Dir Wind Speed Gust Speed Precip Events Conditions
12:28 AM 39.2 °F 35.0 °F 35.6 °F 87% 29.60 in 10.0 mi WNW 5.8 mph - N/A   Mostly Cloudy
12:53 AM 39.0 °F 34.8 °F 35.1 °F 86% 29.55 in 10.0 mi NW 5.8 mph - N/A   Clear
1:53 AM 39.0 °F 31.8 °F 35.1 °F 86% 29.56 in 10.0 mi NNW 11.5 mph - N/A   Scattered Clouds
2:37 AM 37.4 °F 28.2 °F 33.8 °F 87% 29.62 in 10.0 mi NNW 16.1 mph 26.5 mph N/A   Partly Cloudy
2:53 AM 37.0 °F 28.1 °F 35.1 °F 93% 29.57 in 10.0 mi NNW 15.0 mph 26.5 mph N/A   Mostly Cloudy
3:12 AM 37.4 °F 26.4 °F 33.8 °F 87% 29.61 in 10.0 mi NNW 23.0 mph 32.2 mph N/A   Scattered Clouds
3:27 AM 37.4 °F 26.4 °F 35.6 °F 93% 29.63 in 10.0 mi North 23.0 mph 36.8 mph N/A   Mostly Cloudy
3:53 AM 34.0 °F 22.4 °F 32.0 °F 92% 29.60 in 10.0 mi North 20.7 mph 33.4 mph N/A   Overcast
4:12 AM 33.8 °F 19.9 °F 28.4 °F 81% 29.63 in 10.0 mi North 31.1 mph 39.1 mph N/A   Mostly Cloudy
4:34 AM 30.2 °F 15.7 °F 26.6 °F 86% 29.64 in 10.0 mi NNW 27.6 mph 42.6 mph N/A   Overcast
4:53 AM 28.9 °F 13.5 °F 24.1 °F 82% 29.64 in 10.0 mi NW 29.9 mph 39.1 mph N/A   Mostly Cloudy
5:17 AM 28.4 °F 12.3 °F 23.0 °F 80% 29.66 in 10.0 mi NNW 32.2 mph 46.0 mph N/A   Scattered Clouds
5:37 AM 26.6 °F 9.6 °F 23.0 °F 86% 29.67 in 10.0 mi North 33.4 mph 46.0 mph N/A   Scattered Clouds
5:45 AM 26.6 °F 9.1 °F 23.0 °F 86% 29.68 in 10.0 mi North 35.7 mph 47.2 mph N/A   Mostly Cloudy
5:53 AM 27.0 °F 9.8 °F 23.0 °F 85% 29.68 in 9.0 mi North 34.5 mph 46.0 mph N/A   Mostly Cloudy
6:53 AM 25.0 °F 8.4 °F 21.0 °F 85% 29.74 in 10.0 mi NNW 28.8 mph 46.0 mph 0.00 in   Overcast
7:07 AM 24.8 °F 7.1 °F 21.2 °F 86% 29.74 in 9.0 mi North 33.4 mph 46.0 mph N/A   Overcast
7:48 AM 24.8 °F 8.1 °F 19.4 °F 80% 29.77 in 9.0 mi North 28.8 mph 36.8 mph N/A   Overcast
7:53 AM 24.1 °F 6.4 °F 19.9 °F 84% 29.81 in 9.0 mi North 32.2 mph 42.6 mph N/A   Overcast
8:17 AM 23.0 °F 4.4 °F 19.4 °F 86% 29.77 in 6.0 mi North 34.5 mph 44.9 mph N/A   Overcast
8:26 AM 23.0 °F 4.6 °F 19.4 °F 86% 29.78 in 5.0 mi North 33.4 mph 44.9 mph 0.00 in   Overcast
8:53 AM 21.9 °F 3.1 °F 19.0 °F 89% 29.84 in 4.0 mi North 33.4 mph 43.7 mph 0.00 in Snow Light Snow
9:34 AM 21.2 °F 2.4 °F 19.4 °F 93% 29.82 in 2.5 mi North 32.2 mph 44.9 mph 0.00 in Snow Light Snow
9:53 AM 23.0 °F 5.1 °F 19.0 °F 85% 29.87 in 1.5 mi North 31.1 mph 42.6 mph 0.00 in Snow Light Snow
10:01 AM 21.2 °F 2.7 °F 17.6 °F 86% 29.83 in 2.0 mi North 31.1 mph 44.9 mph 0.00 in Snow Light Snow
10:39 AM 21.2 °F 2.7 °F 17.6 °F 86% 29.85 in 1.8 mi North 31.1 mph 44.9 mph 0.00 in Snow Light Snow
10:53 AM 21.9 °F 3.9 °F 17.1 °F 82% 29.91 in 2.0 mi North 29.9 mph 43.7 mph 0.00 in Snow Light Snow
11:39 AM 21.2 °F 3.3 °F 17.6 °F 86% 29.88 in 3.0 mi North 28.8 mph 44.9 mph 0.00 in Snow Light Snow
11:53 AM 21.9 °F 3.4 °F 17.1 °F 82% 29.95 in 6.0 mi North 32.2 mph 44.9 mph 0.00 in Snow Light Snow
12:38 PM 21.2 °F 1.9 °F 17.6 °F 86% 29.90 in 6.0 mi North 34.5 mph 43.7 mph 0.00 in Snow Light Snow
12:53 PM 21.9 °F 3.7 °F 16.0 °F 78% 29.96 in 4.0 mi North 31.1 mph 44.9 mph 0.00 in Snow Light Snow
1:25 PM 21.2 °F 2.7 °F 15.8 °F 80% 29.90 in 1.8 mi North 31.1 mph 44.9 mph 0.00 in Snow Light Snow
1:39 PM 21.2 °F 2.4 °F 15.8 °F 80% 29.91 in 0.8 mi North 32.2 mph 43.7 mph 0.00 in Snow Light Snow
1:50 PM 21.2 °F 2.4 °F 17.6 °F 86% 29.91 in 1.0 mi North 32.2 mph 42.6 mph 0.00 in Snow Light Snow
1:53 PM 21.0 °F 2.4 °F 16.0 °F 81% 29.99 in 1.0 mi North 31.1 mph 42.6 mph 0.00 in Snow Light Snow
2:20 PM 21.2 °F 2.4 °F 15.8 °F 80% 29.92 in 0.8 mi North 32.2 mph 42.6 mph 0.00 in Snow Light Snow
2:53 PM 19.9 °F 0.4 °F 16.0 °F 85% 30.01 in 1.0 mi North 33.4 mph 44.9 mph 0.00 in Snow Light Snow
3:01 PM 19.4 °F -0.0 °F 15.8 °F 86% 29.93 in 0.8 mi North 32.2 mph 44.9 mph 0.00 in Snow Light Snow
3:35 PM 19.4 °F 0.2 °F 15.8 °F 86% 29.94 in 1.0 mi NNW 31.1 mph 39.1 mph 0.00 in Snow Light Snow
3:53 PM 19.0 °F 0.0 °F 14.0 °F 81% 30.04 in 0.8 mi NNW 29.9 mph 39.1 mph 0.00 in Snow Light Snow
4:16 PM 19.4 °F 0.5 °F 15.8 °F 86% 29.94 in 1.0 mi NNW 29.9 mph 39.1 mph 0.00 in Snow Light Snow
4:49 PM 19.4 °F -0.0 °F 15.8 °F 86% 29.96 in 0.8 mi NNW 32.2 mph 39.1 mph 0.00 in Snow Light Snow
4:53 PM 19.0 °F -0.3 °F 14.0 °F 81% 30.08 in 0.8 mi NNW 31.1 mph 38.0 mph 0.00 in Snow Light Snow
5:53 PM 18.0 °F -1.1 °F 12.9 °F 81% 30.11 in 0.8 mi NNW 28.8 mph 42.6 mph 0.00 in Snow Light Snow
6:44 PM 17.6 °F -1.6 °F 12.2 °F 79% 30.02 in 0.5 mi North 28.8 mph 40.3 mph 0.00 in Fog , Snow Light Snow
6:53 PM 17.1 °F -3.0 °F 12.9 °F 84% 30.17 in 0.5 mi North 31.1 mph 36.8 mph 0.00 in Fog , Snow Light Snow
7:26 PM 17.6 °F -1.0 °F 12.2 °F 79% 30.04 in 0.5 mi NNW 26.5 mph 40.3 mph 0.00 in Fog , Snow Light Snow
7:53 PM 17.1 °F -3.0 °F 12.0 °F 81% 30.18 in 0.8 mi NNW 31.1 mph 41.4 mph 0.00 in Snow Light Snow
7:55 PM 17.6 °F -3.3 °F 12.2 °F 79% 30.04 in 1.2 mi North 35.7 mph 42.6 mph 0.00 in Snow Light Snow
8:09 PM 17.6 °F -2.2 °F 12.2 °F 79% 30.05 in 2.5 mi North 31.1 mph 44.9 mph 0.00 in Snow Light Snow
8:20 PM 17.6 °F -1.3 °F 12.2 °F 79% 30.06 in 2.5 mi North 27.6 mph 43.7 mph 0.00 in Snow Light Snow
8:53 PM 17.1 °F -3.2 °F 12.0 °F 81% 30.22 in 2.5 mi North 32.2 mph 43.7 mph 0.00 in Snow Light Snow
9:21 PM 17.6 °F -2.5 °F 12.2 °F 79% 30.09 in 2.0 mi North 32.2 mph 42.6 mph 0.00 in Snow Light Snow
9:38 PM 17.6 °F -2.2 °F 12.2 °F 79% 30.10 in 1.2 mi North 31.1 mph 41.4 mph 0.00 in Snow Light Snow
9:41 PM 17.6 °F -2.5 °F 12.2 °F 79% 30.10 in 1.0 mi North 32.2 mph - 0.00 in Snow Light Snow
9:53 PM 16.0 °F -4.4 °F 12.0 °F 84% 30.25 in 0.8 mi North 31.1 mph 40.3 mph 0.00 in Snow Light Snow
10:03 PM 15.8 °F -4.1 °F 12.2 °F 86% 30.10 in 1.0 mi North 28.8 mph 39.1 mph 0.00 in Snow Light Snow
10:16 PM 15.8 °F -4.1 °F 12.2 °F 86% 30.11 in 0.5 mi North 28.8 mph 34.5 mph 0.00 in Fog , Snow Snow
10:27 PM 15.8 °F -3.1 °F 12.2 °F 86% 30.10 in 0.5 mi North 25.3 mph 33.4 mph 0.00 in Fog , Snow Snow
10:39 PM 15.8 °F -4.4 °F 12.2 °F 86% 30.10 in 0.8 mi North 29.9 mph 34.5 mph 0.00 in Snow Light Snow
10:53 PM 15.1 °F -4.7 °F 12.0 °F 88% 30.26 in 1.0 mi North 27.6 mph 34.5 mph 0.00 in Snow Light Snow
11:28 PM 15.8 °F -3.4 °F 10.4 °F 79% 30.10 in 1.2 mi North 26.5 mph 34.5 mph 0.00 in Snow Light Snow
11:39 PM 15.8 °F -2.7 °F 10.4 °F 79% 30.10 in 1.5 mi North 24.2 mph 33.4 mph 0.00 in Snow Light Snow
11:51 PM 15.8 °F -4.1 °F 10.4 °F 79% 30.09 in 2.0 mi North 28.8 mph 34.5 mph 0.00 in Snow Light Snow
11:53 PM 15.1 °F -5.3 °F 10.9 °F 84% 30.25 in 2.0 mi North 29.9 mph 34.5 mph 0.00 in Snow Light Snow